• Join FlightAware (Why Join?)
  • Login
  • US Flag 
11:03AM EDT


 

Airport Tracker/Info


-or-


 

Live Flight TrackerFlight Track Log ✈ DAL6048 ✈ 15-May-2013 ✈ KMHT - KLGA

Flight Track Log - Related Links

Times and Time Zones

All times are in EDT time to prevent confusion due to time zone crossing. See the DAL6048 flight status page for this flight to view local times or setup timezone preferences in your user account.

Time Position Orientation Groundspeed Altitude Reporting Facility
EDT Latitude Longitude Course Direction KTS MPH feet Rate Location/Type
01:47PM 42.9044 -71.4283 232° Southwest 153 176 1,800  Level Boston Center
01:48PM 42.8986 -71.4792 261° West 129 148 3,800 2,340 Climbing Boston Center
01:49PM 42.9408 -71.5522 308° West 183 211 6,500 2,640 Climbing Boston Center
01:50PM 42.9789 -71.6142 310° West 216 249 9,100 2,400 Climbing Boston Center
01:51PM 42.6251 -71.9361 231° Southwest  Level FlightAware Approximate
01:51PM 42.9897 -71.6908 281° West 217 250 11,300  Level Boston Center
01:52PM 42.5654 -72.0354 232° Southwest  Level FlightAware Approximate
01:52PM 42.9444 -71.7567 227° Southwest 201 231 13,300  Level Boston Center
01:53PM 42.8886 -71.8253 222° Southwest 261 300 15,100 1,380 Climbing Boston Center
01:54PM 42.8306 -71.8967 222° Southwest 277 319 16,100 420 Climbing Boston Center
01:55PM 42.7600 -71.9847 223° Southwest 330 380 16,000 -60 Descending Boston Center
01:56PM 42.6894 -72.0700 222° Southwest 373 429 16,000  Level Boston Center
01:57PM 42.6064 -72.1750 223° Southwest 379 436 16,000  Level Boston Center
01:58PM 42.5378 -72.2597 222° Southwest 374 430 16,000  Level Boston Center
01:59PM 42.4544 -72.3614 222° Southwest 369 425 16,000  Level Boston Center
02:00PM 42.3775 -72.4569 223° Southwest 369 425 16,000  Level Boston Center
02:01PM 42.2961 -72.5494 220° Southwest 381 438 16,000 -420 Level Boston Center
02:02PM 42.2294 -72.6336 223° Southwest 381 438 15,200 -900 Descending Boston Center
02:03PM 42.1542 -72.7342 225° Southwest 381 438 14,200 -720 Descending Boston Center
02:04PM 42.1058 -72.8431 239° Southwest 347 399 13,800 -960 Descending Boston Center
02:05PM 42.0492 -72.9322 229° Southwest 309 356 12,300 -900 Descending Boston Center
02:06PM 41.9803 -72.9903 212° Southwest 304 350 12,000 -180 Descending Boston Center
02:07PM 41.9131 -73.0456 211° Southwest 311 358 12,000  Level Boston Center
02:08PM 41.8439 -73.1256 221° Southwest 317 365 12,100  Climbing Boston Center
02:09PM 41.8039 -73.2031 235° Southwest 292 336 12,100  Level Boston Center
02:10PM 41.7531 -73.3000 235° Southwest 297 342 12,100 -60 Level Boston Center
02:11PM 41.7089 -73.3772 233° Southwest 297 342 12,000 -60 Descending Boston Center
02:12PM 41.6558 -73.4736 234° Southwest 279 321 12,000 -660 Level Boston Center
02:14PM 41.5500 -73.6333 229° Southwest 267 307 10,000 -1,080 Descending New York TRACON
02:15PM 41.5000 -73.6667 207° Southwest 250 288 9,000 -660 Descending New York TRACON
02:16PM 41.4333 -73.7333 217° Southwest 258 297 8,700 -540 Descending New York TRACON
02:17PM 41.3667 -73.7667 201° Southwest 264 304 8,000 -360 Descending New York TRACON
02:18PM 41.3000 -73.7500 169° South 285 328 8,100 -600 Climbing New York TRACON
02:19PM 41.2333 -73.7000 151° Southeast 276 318 6,900 -1,380 Descending New York TRACON
02:20PM 41.1667 -73.6667 159° South 249 287 5,400 -1,500 Descending New York TRACON
02:21PM 41.1167 -73.6500 166° South 239 275 4,100 -660 Descending New York TRACON
02:22PM 41.0500 -73.6500 180° South 238 274 4,100  Level New York TRACON
02:23PM 41.0000 -73.7000 217° Southwest 201 231 4,100  Level New York TRACON
02:24PM 40.9500 -73.7333 207° Southwest 201 231 4,100  Level New York TRACON